createdAt,value
2019-03-27T00:00:47.643Z,6.00
2019-03-27T00:03:16.950Z,6.00
2019-03-27T00:05:46.324Z,5.90
2019-03-27T00:08:15.698Z,5.90
2019-03-27T00:10:45.019Z,5.90
2019-03-27T00:13:15.037Z,5.90
2019-03-27T00:15:44.351Z,5.90
2019-03-27T00:18:13.644Z,5.80
2019-03-27T00:20:42.961Z,5.80
2019-03-27T00:23:12.244Z,5.80
2019-03-27T00:25:41.558Z,5.80
2019-03-27T00:28:10.923Z,5.80
2019-03-27T00:30:40.352Z,5.70
2019-03-27T00:33:09.671Z,5.70
2019-03-27T00:35:38.977Z,5.80
2019-03-27T00:38:08.281Z,5.80
2019-03-27T00:40:37.589Z,5.90
2019-03-27T00:43:06.900Z,6.10
2019-03-27T00:45:36.198Z,6.30
2019-03-27T00:48:05.496Z,6.50
2019-03-27T00:50:34.867Z,6.60
2019-03-27T00:53:04.208Z,6.80
2019-03-27T00:55:33.516Z,7.00
2019-03-27T00:58:02.890Z,7.20
2019-03-27T01:00:47.702Z,7.30
2019-03-27T01:03:17.078Z,7.40
2019-03-27T01:05:47.626Z,7.60
2019-03-27T01:08:17.057Z,7.70
2019-03-27T01:10:46.438Z,7.80
2019-03-27T01:13:15.742Z,7.90
2019-03-27T01:15:45.126Z,8.00
2019-03-27T01:18:14.494Z,8.00
2019-03-27T01:20:43.818Z,8.10
2019-03-27T01:23:13.136Z,8.20
2019-03-27T01:25:42.437Z,8.20
2019-03-27T01:28:11.734Z,8.20
2019-03-27T01:30:41.037Z,8.20
2019-03-27T01:33:10.343Z,8.30
2019-03-27T01:35:41.026Z,8.30
2019-03-27T01:38:10.458Z,8.40
2019-03-27T01:40:39.798Z,8.40
2019-03-27T01:43:28.607Z,8.50
2019-03-27T01:45:57.918Z,8.50
2019-03-27T01:48:27.291Z,8.50
2019-03-27T01:50:56.685Z,8.50
2019-03-27T01:53:25.995Z,8.50
2019-03-27T01:55:55.360Z,8.50
2019-03-27T01:58:24.677Z,8.50
2019-03-27T02:00:53.969Z,8.50
2019-03-27T02:03:23.273Z,8.50
2019-03-27T02:05:52.917Z,8.50
2019-03-27T02:08:23.870Z,8.50
2019-03-27T02:10:53.246Z,8.50
2019-03-27T02:13:22.620Z,8.40
2019-03-27T02:15:51.999Z,8.40
2019-03-27T02:18:21.337Z,8.40
2019-03-27T02:20:51.702Z,8.40
2019-03-27T02:23:21.078Z,8.40
2019-03-27T02:25:50.395Z,8.30
2019-03-27T02:28:19.693Z,8.30
2019-03-27T02:30:50.618Z,8.30
2019-03-27T02:33:19.913Z,8.20
2019-03-27T02:35:49.290Z,8.20
2019-03-27T02:38:20.026Z,8.20
2019-03-27T02:40:51.080Z,8.10
2019-03-27T02:43:21.446Z,8.10
2019-03-27T02:45:50.776Z,8.00
2019-03-27T02:48:20.156Z,7.90
2019-03-27T02:50:49.642Z,7.70
2019-03-27T02:53:18.938Z,7.70
2019-03-27T02:55:49.904Z,7.60
2019-03-27T02:58:20.302Z,7.50
2019-03-27T03:00:49.676Z,7.40
2019-03-27T03:03:19.068Z,7.20
2019-03-27T03:05:48.369Z,7.10
2019-03-27T03:08:17.750Z,7.00
2019-03-27T03:10:47.124Z,7.00
2019-03-27T03:13:16.492Z,6.90
2019-03-27T03:15:45.791Z,6.90
2019-03-27T03:18:15.178Z,6.80
2019-03-27T03:20:44.555Z,6.80
2019-03-27T03:23:13.871Z,6.90
2019-03-27T03:25:43.310Z,6.90
2019-03-27T03:28:12.647Z,7.00
2019-03-27T03:30:42.157Z,7.10
2019-03-27T03:33:11.601Z,7.20
2019-03-27T03:35:41.060Z,7.30
2019-03-27T03:38:10.516Z,7.40
2019-03-27T03:40:42.531Z,7.50
2019-03-27T03:43:11.895Z,7.50
2019-03-27T03:45:45.802Z,7.60
2019-03-27T03:48:15.182Z,7.60
2019-03-27T03:50:44.647Z,7.70
2019-03-27T03:53:14.080Z,7.70
2019-03-27T03:55:43.527Z,7.80
2019-03-27T03:58:13.968Z,7.80
2019-03-27T04:00:43.302Z,7.90
2019-03-27T04:03:33.678Z,7.90
2019-03-27T04:06:03.079Z,7.90
2019-03-27T04:08:32.358Z,8.00
2019-03-27T04:11:01.658Z,8.00
2019-03-27T04:13:30.977Z,8.00
2019-03-27T04:16:00.276Z,8.10
2019-03-27T04:18:29.809Z,8.10
2019-03-27T04:20:59.136Z,8.20
2019-03-27T04:23:29.825Z,8.20
2019-03-27T04:26:09.687Z,8.20
2019-03-27T04:28:30.062Z,8.20
2019-03-27T04:30:59.425Z,8.20
2019-03-27T04:33:31.860Z,8.20
2019-03-27T04:36:02.218Z,8.30
2019-03-27T04:38:31.594Z,8.20
2019-03-27T04:41:00.966Z,8.30
2019-03-27T04:43:30.349Z,8.30
2019-03-27T04:45:59.637Z,8.30
2019-03-27T04:48:28.965Z,8.40
2019-03-27T04:50:58.258Z,8.40
2019-03-27T04:53:27.667Z,8.50
2019-03-27T04:55:57.030Z,8.50
2019-03-27T04:58:26.406Z,8.50
2019-03-27T05:00:56.338Z,8.50
2019-03-27T05:03:25.726Z,8.50
2019-03-27T05:05:55.107Z,8.50
2019-03-27T05:08:24.479Z,8.50
2019-03-27T05:10:53.854Z,8.50
2019-03-27T05:13:23.144Z,8.50
2019-03-27T05:15:52.537Z,8.40
2019-03-27T05:18:21.841Z,8.40
2019-03-27T05:20:51.210Z,8.40
2019-03-27T05:23:20.503Z,8.40
2019-03-27T05:25:49.819Z,8.40
2019-03-27T05:28:19.118Z,8.40
2019-03-27T05:30:48.493Z,8.50
2019-03-27T05:33:17.854Z,8.50
2019-03-27T05:35:47.363Z,8.60
2019-03-27T05:38:20.509Z,8.60
2019-03-27T05:40:50.117Z,8.60
2019-03-27T05:43:21.038Z,8.70
2019-03-27T05:45:50.497Z,8.70
2019-03-27T05:48:19.797Z,8.80
2019-03-27T05:50:49.167Z,8.90
2019-03-27T05:53:18.487Z,9.00
2019-03-27T05:55:48.353Z,9.10
2019-03-27T05:58:17.677Z,9.10
2019-03-27T06:00:47.054Z,9.20
2019-03-27T06:03:16.427Z,9.20
2019-03-27T06:05:45.727Z,9.30
2019-03-27T06:08:16.661Z,9.30
2019-03-27T06:10:46.031Z,9.40
2019-03-27T06:13:15.419Z,9.40
2019-03-27T06:15:45.861Z,9.50
2019-03-27T06:18:15.179Z,9.50
2019-03-27T06:20:44.486Z,9.60
2019-03-27T06:23:13.841Z,9.70
2019-03-27T06:25:43.226Z,9.70
2019-03-27T06:28:15.498Z,9.80
2019-03-27T06:30:44.796Z,9.90
2019-03-27T06:33:14.088Z,9.90
2019-03-27T06:35:43.398Z,10.00
2019-03-27T06:38:12.700Z,10.10
2019-03-27T06:40:42.006Z,10.20
2019-03-27T06:43:11.305Z,10.20
2019-03-27T06:45:40.680Z,10.40
2019-03-27T06:48:09.986Z,10.50
2019-03-27T06:50:39.505Z,10.60
2019-03-27T06:53:08.885Z,10.60
2019-03-27T06:55:38.201Z,10.70
2019-03-27T06:58:07.498Z,10.80
2019-03-27T07:00:37.527Z,10.90
2019-03-27T07:03:07.823Z,11.00
2019-03-27T07:05:37.651Z,11.20
2019-03-27T07:08:06.873Z,11.20
2019-03-27T07:10:36.182Z,11.30
2019-03-27T07:13:05.490Z,11.40
2019-03-27T07:15:35.949Z,11.60
2019-03-27T07:18:05.542Z,11.70
2019-03-27T07:20:36.610Z,12.00
2019-03-27T07:23:06.062Z,12.10
2019-03-27T07:25:35.367Z,12.30
2019-03-27T07:28:04.753Z,12.40
2019-03-27T07:30:34.056Z,12.60
2019-03-27T07:33:03.506Z,12.80
2019-03-27T07:35:32.810Z,13.00
2019-03-27T07:38:02.130Z,13.10
2019-03-27T07:40:32.507Z,13.20
2019-03-27T07:43:01.825Z,13.30
2019-03-27T07:45:31.133Z,13.40
2019-03-27T07:48:00.469Z,13.50
2019-03-27T07:50:29.921Z,13.60
2019-03-27T07:53:02.173Z,13.80
2019-03-27T07:55:31.545Z,13.90
2019-03-27T07:58:00.989Z,14.00
2019-03-27T08:00:30.392Z,14.10
2019-03-27T08:03:01.565Z,14.20
2019-03-27T08:05:31.960Z,14.30
2019-03-27T08:08:01.355Z,14.40
2019-03-27T08:10:32.293Z,14.50
2019-03-27T08:13:01.597Z,14.50
2019-03-27T08:15:30.995Z,14.40
2019-03-27T08:18:00.292Z,14.40
2019-03-27T08:20:36.893Z,14.30
2019-03-27T08:23:06.200Z,14.20
2019-03-27T08:25:35.582Z,14.10
2019-03-27T08:28:04.890Z,14.10
2019-03-27T08:30:34.244Z,14.10
2019-03-27T08:33:03.606Z,14.20
2019-03-27T08:35:32.915Z,14.20
2019-03-27T08:38:02.242Z,14.30
2019-03-27T08:40:31.620Z,14.30
2019-03-27T08:43:03.957Z,14.20
2019-03-27T08:45:33.325Z,14.20
2019-03-27T08:48:02.706Z,14.20
2019-03-27T08:50:32.033Z,14.30
2019-03-27T08:53:01.351Z,14.30
2019-03-27T08:55:33.408Z,14.40
2019-03-27T08:58:04.436Z,14.50
2019-03-27T09:00:46.343Z,14.60
2019-03-27T09:03:15.787Z,14.60
2019-03-27T09:05:45.165Z,14.70
2019-03-27T09:08:14.816Z,14.80
2019-03-27T09:10:53.194Z,14.80
2019-03-27T09:13:22.581Z,14.90
2019-03-27T09:15:51.906Z,14.90
2019-03-27T09:18:21.297Z,15.00
2019-03-27T09:20:50.606Z,15.10
2019-03-27T09:23:20.023Z,15.10
2019-03-27T09:25:50.966Z,15.20
2019-03-27T09:28:20.282Z,15.20
2019-03-27T09:30:49.589Z,15.20
2019-03-27T09:33:19.030Z,15.30
2019-03-27T09:35:48.349Z,15.20
2019-03-27T09:38:17.717Z,15.20
2019-03-27T09:40:47.036Z,15.30
2019-03-27T09:43:16.334Z,15.30
2019-03-27T09:45:45.647Z,15.40
2019-03-27T09:48:14.938Z,15.40
2019-03-27T09:50:44.253Z,15.40
2019-03-27T09:53:13.553Z,15.50
2019-03-27T09:55:42.931Z,15.60
2019-03-27T09:58:12.309Z,15.60
2019-03-27T10:00:47.804Z,15.70
2019-03-27T10:03:17.208Z,15.70
2019-03-27T10:05:46.568Z,15.80
2019-03-27T10:08:15.950Z,15.80
2019-03-27T10:10:50.157Z,16.00
2019-03-27T10:13:19.776Z,16.10
2019-03-27T10:15:49.087Z,16.10
2019-03-27T10:18:19.381Z,16.10
2019-03-27T10:20:48.758Z,16.20
2019-03-27T10:23:19.712Z,16.20
2019-03-27T10:25:49.013Z,16.30
2019-03-27T10:28:20.038Z,16.40
2019-03-27T10:30:50.469Z,16.50
2019-03-27T10:33:19.857Z,16.50
2019-03-27T10:35:49.166Z,16.60
2019-03-27T10:38:18.538Z,16.60
2019-03-27T10:40:48.003Z,16.60
2019-03-27T10:43:18.416Z,16.70
2019-03-27T10:45:47.713Z,16.60
2019-03-27T10:48:17.030Z,16.70
2019-03-27T10:50:51.435Z,16.80
2019-03-27T10:53:20.812Z,16.80
2019-03-27T10:55:50.122Z,16.90
2019-03-27T10:58:19.447Z,17.00
2019-03-27T11:00:48.814Z,17.10
2019-03-27T11:03:18.295Z,17.10
2019-03-27T11:05:47.663Z,17.30
2019-03-27T11:08:18.619Z,17.30
2019-03-27T11:10:47.934Z,17.40
2019-03-27T11:13:17.240Z,17.40
2019-03-27T11:15:46.563Z,17.50
2019-03-27T11:18:15.857Z,17.60
2019-03-27T11:20:45.165Z,17.70
2019-03-27T11:23:14.541Z,17.80
2019-03-27T11:25:43.943Z,18.00
2019-03-27T11:28:20.861Z,18.10
2019-03-27T11:30:50.163Z,18.30
2019-03-27T11:33:19.523Z,18.40
2019-03-27T11:35:51.635Z,18.50
2019-03-27T11:38:19.832Z,18.60
2019-03-27T11:40:49.157Z,18.70
2019-03-27T11:43:18.525Z,18.80
2019-03-27T11:45:48.916Z,18.70
2019-03-27T11:48:18.295Z,18.70
2019-03-27T11:50:47.793Z,18.80
2019-03-27T11:53:17.087Z,18.90
2019-03-27T11:55:46.390Z,19.00
2019-03-27T11:58:15.687Z,19.00
2019-03-27T12:00:54.488Z,19.00
2019-03-27T12:03:15.930Z,19.10
2019-03-27T12:05:45.811Z,19.10
2019-03-27T12:08:15.430Z,19.20
2019-03-27T12:10:45.978Z,19.40
2019-03-27T12:13:15.360Z,19.50
2019-03-27T12:15:44.664Z,19.70
2019-03-27T12:18:14.433Z,19.70
2019-03-27T12:20:59.158Z,19.70
2019-03-27T12:23:20.735Z,19.70
2019-03-27T12:25:51.095Z,19.70
2019-03-27T12:28:20.410Z,19.90
2019-03-27T12:30:49.765Z,20.10
2019-03-27T12:33:19.189Z,20.40
2019-03-27T12:35:48.479Z,20.80
2019-03-27T12:38:17.865Z,21.00
2019-03-27T12:40:47.182Z,21.20
2019-03-27T12:43:16.571Z,21.30
2019-03-27T12:45:45.888Z,21.40
2019-03-27T12:48:15.347Z,21.40
2019-03-27T12:50:45.801Z,21.30
2019-03-27T12:53:15.181Z,21.30
2019-03-27T12:55:44.590Z,21.30
2019-03-27T12:58:13.908Z,21.30
2019-03-27T13:00:43.208Z,21.20
2019-03-27T13:03:12.525Z,21.30
2019-03-27T13:05:41.904Z,21.30
2019-03-27T13:08:11.275Z,21.20
2019-03-27T13:10:40.756Z,21.20
2019-03-27T13:13:10.128Z,21.20
2019-03-27T13:15:39.438Z,21.20
2019-03-27T13:18:08.750Z,21.30
2019-03-27T13:20:38.059Z,21.30
2019-03-27T13:23:07.370Z,21.40
2019-03-27T13:25:36.682Z,21.30
2019-03-27T13:28:06.076Z,21.30
2019-03-27T13:30:35.370Z,21.40
2019-03-27T13:33:04.832Z,21.50
2019-03-27T13:35:34.287Z,21.50
2019-03-27T13:38:03.761Z,21.60
2019-03-27T13:40:33.082Z,21.70
2019-03-27T13:43:02.579Z,21.90
2019-03-27T13:45:32.021Z,22.00
2019-03-27T13:48:01.391Z,21.90
2019-03-27T13:50:30.800Z,21.70
2019-03-27T13:53:00.112Z,21.50
2019-03-27T13:55:29.427Z,21.50
2019-03-27T13:57:58.796Z,21.40
2019-03-27T14:00:28.122Z,21.40
2019-03-27T14:02:57.426Z,21.30
2019-03-27T14:05:26.813Z,21.30
2019-03-27T14:07:56.271Z,21.30
2019-03-27T14:10:25.602Z,21.30
2019-03-27T14:12:54.982Z,21.50
2019-03-27T14:15:24.726Z,21.70
2019-03-27T14:17:53.409Z,21.80
2019-03-27T14:20:22.708Z,21.80
2019-03-27T14:23:11.493Z,21.50
2019-03-27T14:25:40.834Z,21.10
2019-03-27T14:28:10.242Z,20.90
2019-03-27T14:30:56.367Z,21.00
2019-03-27T14:33:25.749Z,21.10
2019-03-27T14:35:55.052Z,21.30
2019-03-27T14:38:24.441Z,21.30
2019-03-27T14:40:53.748Z,21.40
2019-03-27T14:43:23.066Z,21.50
2019-03-27T14:45:53.518Z,21.60
2019-03-27T14:48:22.852Z,21.70
2019-03-27T14:50:52.228Z,21.90
2019-03-27T14:53:21.566Z,21.90
2019-03-27T14:55:50.861Z,21.90
2019-03-27T14:58:20.246Z,21.70
2019-03-27T15:00:49.689Z,21.70
2019-03-27T15:03:19.092Z,21.80
2019-03-27T15:05:48.398Z,22.00
2019-03-27T15:08:18.796Z,22.20
2019-03-27T15:10:48.178Z,22.30
2019-03-27T15:13:17.587Z,22.40
2019-03-27T15:15:47.083Z,22.60
2019-03-27T15:18:16.453Z,22.90
2019-03-27T15:20:45.830Z,23.00
2019-03-27T15:23:15.215Z,23.00
2019-03-27T15:25:44.531Z,23.10
2019-03-27T15:28:13.838Z,23.20
2019-03-27T15:30:43.164Z,23.20
2019-03-27T15:33:12.458Z,23.70
2019-03-27T15:35:44.412Z,24.60
2019-03-27T15:38:12.719Z,25.90
2019-03-27T15:40:43.482Z,25.80
2019-03-27T15:43:14.404Z,25.00
2019-03-27T15:45:43.783Z,24.10
2019-03-27T15:48:14.175Z,23.40
2019-03-27T15:50:54.332Z,23.70
2019-03-27T15:53:14.414Z,25.00
2019-03-27T15:55:43.793Z,26.70
2019-03-27T15:58:13.176Z,27.80
2019-03-27T16:00:42.490Z,27.30
2019-03-27T16:03:11.882Z,26.80
2019-03-27T16:05:41.182Z,27.10
2019-03-27T16:08:10.570Z,27.80
2019-03-27T16:10:39.871Z,28.30
2019-03-27T16:13:09.410Z,27.60
2019-03-27T16:15:38.782Z,26.20
2019-03-27T16:18:08.190Z,25.00
2019-03-27T16:20:37.489Z,24.10
2019-03-27T16:23:06.805Z,23.40
2019-03-27T16:25:36.308Z,22.70
2019-03-27T16:28:05.596Z,22.00
2019-03-27T16:30:34.978Z,21.50
2019-03-27T16:33:04.314Z,21.00
2019-03-27T16:35:33.631Z,20.40
2019-03-27T16:38:02.942Z,19.90
2019-03-27T16:40:46.316Z,19.50
2019-03-27T16:43:15.720Z,19.20
2019-03-27T16:45:45.107Z,19.10
2019-03-27T16:48:14.415Z,19.80
2019-03-27T16:50:43.742Z,20.60
2019-03-27T16:53:13.127Z,21.30
2019-03-27T16:55:42.467Z,21.70
2019-03-27T16:58:11.741Z,21.90
2019-03-27T17:00:41.155Z,22.10
2019-03-27T17:03:10.476Z,22.30
2019-03-27T17:05:53.043Z,22.30
2019-03-27T17:08:10.809Z,22.10
2019-03-27T17:10:40.206Z,21.80
2019-03-27T17:13:09.797Z,21.40
2019-03-27T17:15:39.207Z,20.70
2019-03-27T17:18:08.538Z,20.10
2019-03-27T17:20:37.848Z,19.60
2019-03-27T17:23:17.320Z,19.10
2019-03-27T17:25:38.287Z,18.70
2019-03-27T17:28:07.612Z,18.30
2019-03-27T17:30:36.981Z,17.90
2019-03-27T17:33:06.293Z,17.60
2019-03-27T17:35:35.744Z,17.30
2019-03-27T17:38:05.052Z,17.00
2019-03-27T17:40:34.439Z,16.70
2019-03-27T17:43:03.749Z,16.50
2019-03-27T17:45:33.078Z,16.20
2019-03-27T17:48:02.376Z,16.00
2019-03-27T17:50:31.852Z,15.80
2019-03-27T17:53:01.135Z,15.60
2019-03-27T17:55:30.571Z,15.40
2019-03-27T17:57:59.833Z,15.20
2019-03-27T18:00:40.524Z,14.90
2019-03-27T18:03:09.978Z,14.70
2019-03-27T18:05:39.377Z,14.30
2019-03-27T18:08:08.690Z,14.00
2019-03-27T18:10:38.006Z,13.70
2019-03-27T18:13:07.317Z,13.50
2019-03-27T18:15:36.626Z,13.30
2019-03-27T18:18:06.150Z,13.10
2019-03-27T18:20:35.458Z,12.90
2019-03-27T18:23:05.055Z,12.50
2019-03-27T18:25:34.517Z,12.20
2019-03-27T18:28:04.176Z,12.00
2019-03-27T18:30:33.561Z,11.80
2019-03-27T18:33:02.890Z,11.70
2019-03-27T18:35:32.263Z,11.70
2019-03-27T18:38:01.728Z,11.60
2019-03-27T18:40:31.102Z,11.50
2019-03-27T18:43:00.485Z,11.50
2019-03-27T18:45:29.864Z,11.40
2019-03-27T18:47:59.323Z,11.40
2019-03-27T18:50:28.644Z,11.30
2019-03-27T18:52:57.987Z,11.30
2019-03-27T18:55:27.417Z,11.20
2019-03-27T18:58:00.293Z,11.20
2019-03-27T19:00:27.814Z,11.10
2019-03-27T19:02:57.373Z,11.10
2019-03-27T19:05:26.755Z,11.10
2019-03-27T19:07:56.073Z,11.10
2019-03-27T19:10:25.475Z,11.00
2019-03-27T19:12:54.789Z,11.00
2019-03-27T19:15:24.257Z,10.90
2019-03-27T19:17:54.724Z,10.80
2019-03-27T19:20:24.124Z,10.70
2019-03-27T19:22:53.502Z,10.60
2019-03-27T19:25:22.942Z,10.50
2019-03-27T19:27:52.385Z,10.50
2019-03-27T19:30:21.810Z,10.40
2019-03-27T19:32:51.231Z,10.30
2019-03-27T19:35:20.627Z,10.10
2019-03-27T19:37:50.062Z,10.00
2019-03-27T19:40:19.385Z,9.80
2019-03-27T19:42:48.777Z,9.70
2019-03-27T19:45:18.224Z,9.50
2019-03-27T19:47:47.604Z,9.40
2019-03-27T19:50:18.818Z,9.20
2019-03-27T19:52:48.150Z,9.10
2019-03-27T19:55:17.458Z,9.10
2019-03-27T19:57:47.181Z,9.00
2019-03-27T20:00:16.560Z,9.00
2019-03-27T20:02:46.171Z,9.00
2019-03-27T20:05:15.489Z,9.00
2019-03-27T20:07:44.796Z,8.90
2019-03-27T20:10:14.178Z,8.90
2019-03-27T20:12:43.549Z,8.80
2019-03-27T20:15:13.102Z,8.70
2019-03-27T20:17:42.633Z,8.60
2019-03-27T20:20:12.029Z,8.50
2019-03-27T20:22:41.397Z,8.40
2019-03-27T20:25:10.843Z,8.40
2019-03-27T20:27:40.222Z,8.30
2019-03-27T20:30:17.838Z,8.30
2019-03-27T20:32:47.206Z,8.20
2019-03-27T20:35:29.410Z,8.10
2019-03-27T20:37:58.781Z,8.00
2019-03-27T20:40:29.236Z,8.00
2019-03-27T20:42:58.629Z,8.00
2019-03-27T20:45:28.806Z,8.10
2019-03-27T20:47:58.470Z,8.20
2019-03-27T20:50:27.875Z,8.20
2019-03-27T20:52:58.326Z,8.20
2019-03-27T20:55:30.459Z,8.20
2019-03-27T20:57:59.854Z,8.30
2019-03-27T21:00:29.235Z,8.30
2019-03-27T21:02:58.749Z,8.30
2019-03-27T21:05:28.127Z,8.30
2019-03-27T21:07:57.437Z,8.30
2019-03-27T21:10:27.937Z,8.30
2019-03-27T21:12:57.390Z,8.30
2019-03-27T21:15:26.772Z,8.20
2019-03-27T21:17:56.168Z,8.20
2019-03-27T21:20:26.448Z,8.20
2019-03-27T21:22:55.902Z,8.20
2019-03-27T21:25:25.224Z,8.20
2019-03-27T21:27:54.574Z,8.10
2019-03-27T21:30:23.943Z,8.10
2019-03-27T21:32:53.255Z,8.10
2019-03-27T21:35:23.654Z,8.10
2019-03-27T21:37:53.057Z,8.10
2019-03-27T21:40:22.440Z,8.10
2019-03-27T21:42:51.823Z,8.10
2019-03-27T21:45:21.136Z,8.10
2019-03-27T21:47:50.574Z,8.20
2019-03-27T21:50:20.045Z,8.20
2019-03-27T21:53:00.034Z,8.30
2019-03-27T21:55:22.927Z,8.40
2019-03-27T21:57:52.903Z,8.40
2019-03-27T22:00:41.141Z,8.60
2019-03-27T22:03:10.523Z,8.60
2019-03-27T22:05:39.849Z,8.70
2019-03-27T22:08:09.149Z,8.80
2019-03-27T22:10:38.855Z,8.90
2019-03-27T22:13:08.238Z,9.00
2019-03-27T22:15:37.683Z,9.10
2019-03-27T22:18:07.066Z,9.20
2019-03-27T22:20:39.486Z,9.20
2019-03-27T22:23:07.379Z,9.30
2019-03-27T22:25:36.737Z,9.30
2019-03-27T22:28:06.292Z,9.30
2019-03-27T22:30:35.685Z,9.30
2019-03-27T22:33:05.124Z,9.40
2019-03-27T22:35:34.427Z,9.40
2019-03-27T22:38:03.763Z,9.40
2019-03-27T22:40:33.084Z,9.50
2019-03-27T22:43:02.375Z,9.50
2019-03-27T22:45:31.686Z,9.50
2019-03-27T22:48:01.054Z,9.50
2019-03-27T22:50:30.362Z,9.50
2019-03-27T22:52:59.745Z,9.60
2019-03-27T22:55:29.131Z,9.60
2019-03-27T22:57:58.491Z,9.60
2019-03-27T23:00:32.263Z,9.60
2019-03-27T23:03:03.354Z,9.70
2019-03-27T23:05:32.737Z,9.60
2019-03-27T23:08:02.222Z,9.70
2019-03-27T23:10:31.581Z,9.70
2019-03-27T23:13:00.974Z,9.70
2019-03-27T23:15:30.274Z,9.70
2019-03-27T23:17:59.692Z,9.70
2019-03-27T23:20:28.957Z,9.70
2019-03-27T23:22:58.291Z,9.70
2019-03-27T23:25:27.577Z,9.70
2019-03-27T23:27:57.218Z,9.70
2019-03-27T23:30:26.585Z,9.70
2019-03-27T23:32:55.958Z,9.70
2019-03-27T23:35:25.349Z,9.70
2019-03-27T23:37:54.738Z,9.60
2019-03-27T23:40:24.105Z,9.60
2019-03-27T23:42:54.476Z,9.60
2019-03-27T23:45:23.853Z,9.60
2019-03-27T23:47:53.216Z,9.60
2019-03-27T23:50:22.592Z,9.60
2019-03-27T23:52:53.078Z,9.60
2019-03-27T23:55:22.449Z,9.60
2019-03-27T23:57:51.842Z,9.50
